createdAt,value
2022-07-27T00:02:25.349Z,80.48
2022-07-27T00:08:27.854Z,79.87
2022-07-27T00:14:29.877Z,79.56
2022-07-27T00:20:32.843Z,79.63
2022-07-27T00:26:34.918Z,80.33
2022-07-27T00:32:36.898Z,79.43
2022-07-27T00:38:39.018Z,79.92
2022-07-27T00:44:41.467Z,79.34
2022-07-27T00:50:46.113Z,79.86
2022-07-27T00:56:49.335Z,79.73
2022-07-27T01:02:51.725Z,79.68
2022-07-27T01:09:14.988Z,80.60
2022-07-27T01:15:17.784Z,80.11
2022-07-27T01:21:20.615Z,80.92
2022-07-27T01:27:22.638Z,81.87
2022-07-27T01:33:27.366Z,81.97
2022-07-27T01:39:30.530Z,81.48
2022-07-27T01:45:32.613Z,81.81
2022-07-27T01:51:34.590Z,82.27
2022-07-27T01:57:38.200Z,82.96
2022-07-27T02:03:40.287Z,82.63
2022-07-27T02:09:42.274Z,82.99
2022-07-27T02:15:44.541Z,83.20
2022-07-27T02:21:46.750Z,83.51
2022-07-27T02:27:49.717Z,83.85
2022-07-27T02:33:51.679Z,83.47
2022-07-27T02:39:54.562Z,83.89
2022-07-27T02:45:56.665Z,84.28
2022-07-27T02:51:58.936Z,84.55
2022-07-27T02:58:01.722Z,85.22
2022-07-27T03:04:04.301Z,85.96
2022-07-27T03:10:07.498Z,85.94
2022-07-27T03:16:09.740Z,86.30
2022-07-27T03:22:11.788Z,86.44
2022-07-27T03:28:13.827Z,86.77
2022-07-27T03:34:15.838Z,87.08
2022-07-27T03:40:18.142Z,87.50
2022-07-27T03:46:20.161Z,88.20
2022-07-27T03:52:22.200Z,88.09
2022-07-27T03:58:24.383Z,87.48
2022-07-27T04:04:26.332Z,87.86
2022-07-27T04:10:31.533Z,88.55
2022-07-27T04:16:36.227Z,88.27
2022-07-27T04:22:38.432Z,87.56
2022-07-27T04:28:40.399Z,86.21
2022-07-27T04:34:42.339Z,86.00
2022-07-27T04:40:44.353Z,86.76
2022-07-27T04:46:46.440Z,85.98
2022-07-27T04:52:49.231Z,85.26
2022-07-27T04:58:51.199Z,84.61
2022-07-27T05:04:53.175Z,82.95
2022-07-27T05:10:55.187Z,82.53
2022-07-27T05:16:57.281Z,82.39
2022-07-27T05:22:59.658Z,81.11
2022-07-27T05:29:01.611Z,81.22
2022-07-27T05:35:04.791Z,80.87
2022-07-27T05:41:10.209Z,78.92
2022-07-27T05:47:12.200Z,77.95
2022-07-27T05:53:14.182Z,76.24
2022-07-27T05:59:16.331Z,75.38
2022-07-27T06:05:18.376Z,73.46
2022-07-27T06:11:20.429Z,71.00
2022-07-27T06:17:22.385Z,72.29
2022-07-27T06:23:24.571Z,69.76
2022-07-27T06:29:26.651Z,68.85
2022-07-27T06:35:28.672Z,68.37
2022-07-27T06:41:31.037Z,67.67
2022-07-27T06:47:33.476Z,66.42
2022-07-27T06:53:37.430Z,65.84
2022-07-27T06:59:43.325Z,63.38
2022-07-27T07:05:47.147Z,62.73
2022-07-27T07:11:49.121Z,62.10
2022-07-27T07:17:51.175Z,60.13
2022-07-27T07:23:53.175Z,60.46
2022-07-27T07:29:55.342Z,59.68
2022-07-27T07:36:12.550Z,59.93
2022-07-27T07:42:16.570Z,59.40
2022-07-27T07:48:20.678Z,53.19
2022-07-27T07:54:22.784Z,55.03
2022-07-27T08:00:26.111Z,52.28
2022-07-27T08:06:28.518Z,51.74
2022-07-27T08:12:30.530Z,54.55
2022-07-27T08:18:32.859Z,52.95
2022-07-27T08:24:34.888Z,55.97
2022-07-27T08:30:37.035Z,54.70
2022-07-27T08:36:41.642Z,49.63
2022-07-27T08:42:44.039Z,49.36
2022-07-27T08:48:49.813Z,46.83
2022-07-27T08:54:52.328Z,42.69
2022-07-27T09:00:54.577Z,46.22
2022-07-27T09:06:56.648Z,51.66
2022-07-27T09:12:59.136Z,47.41
2022-07-27T09:19:05.652Z,45.77
2022-07-27T09:25:12.574Z,44.75
2022-07-27T09:31:16.640Z,42.91
2022-07-27T09:37:28.020Z,43.84
2022-07-27T09:49:53.731Z,44.15
2022-07-27T09:56:10.701Z,43.18
2022-07-27T10:02:16.748Z,44.53
2022-07-27T10:08:20.288Z,43.66
2022-07-27T10:14:22.232Z,42.17
2022-07-27T10:20:24.414Z,39.72
2022-07-27T10:26:26.252Z,39.47
2022-07-27T10:32:31.508Z,41.80
2022-07-27T10:38:37.493Z,42.48
2022-07-27T10:44:58.653Z,41.12
2022-07-27T10:51:00.784Z,41.48
2022-07-27T10:57:08.394Z,39.79
2022-07-27T11:03:19.443Z,39.93
2022-07-27T11:10:02.574Z,41.91
2022-07-27T11:16:25.732Z,43.24
2022-07-27T11:29:06.704Z,35.06
2022-07-27T11:35:19.825Z,33.95
2022-07-27T11:42:03.175Z,37.20
2022-07-27T11:47:58.813Z,38.17
2022-07-27T11:54:09.023Z,39.67
2022-07-27T12:00:12.122Z,35.24
2022-07-27T12:06:14.330Z,33.05
2022-07-27T12:12:21.843Z,34.32
2022-07-27T12:18:24.026Z,34.78
2022-07-27T12:24:38.666Z,36.18
2022-07-27T12:30:52.187Z,36.63
2022-07-27T12:36:54.314Z,35.69
2022-07-27T12:43:05.556Z,36.79
2022-07-27T12:49:16.205Z,32.47
2022-07-27T12:55:21.283Z,32.87
2022-07-27T13:01:23.353Z,33.62
2022-07-27T13:07:26.174Z,34.38
2022-07-27T13:13:28.408Z,33.44
2022-07-27T13:19:30.879Z,36.22
2022-07-27T13:25:32.985Z,36.35
2022-07-27T13:31:35.637Z,35.17
2022-07-27T13:37:37.773Z,32.90
2022-07-27T13:43:39.853Z,33.66
2022-07-27T13:49:41.846Z,34.97
2022-07-27T13:55:45.093Z,33.49
2022-07-27T14:01:47.430Z,33.60
2022-07-27T14:07:51.541Z,30.48
2022-07-27T14:13:53.676Z,28.00
2022-07-27T14:19:55.700Z,25.24
2022-07-27T14:25:59.346Z,25.95
2022-07-27T14:32:01.939Z,28.12
2022-07-27T14:38:04.455Z,29.11
2022-07-27T14:44:07.786Z,29.13
2022-07-27T14:50:10.201Z,26.54
2022-07-27T14:56:12.268Z,26.09
2022-07-27T15:02:14.357Z,29.61
2022-07-27T15:08:16.386Z,31.99
2022-07-27T15:14:18.436Z,32.53
2022-07-27T15:20:20.565Z,32.97
2022-07-27T15:26:22.722Z,26.81
2022-07-27T15:32:25.075Z,26.63
2022-07-27T15:38:28.725Z,29.26
2022-07-27T15:44:30.838Z,32.66
2022-07-27T15:50:32.891Z,33.21
2022-07-27T15:56:34.886Z,34.25
2022-07-27T16:02:37.029Z,36.22
2022-07-27T16:08:39.324Z,35.15
2022-07-27T16:14:41.381Z,34.19
2022-07-27T16:20:46.287Z,33.00
2022-07-27T16:26:48.336Z,34.01
2022-07-27T16:32:50.463Z,36.30
2022-07-27T16:38:53.153Z,36.96
2022-07-27T16:44:55.175Z,36.25
2022-07-27T16:50:57.831Z,36.66
2022-07-27T16:56:59.897Z,38.28
2022-07-27T17:03:01.944Z,38.28
2022-07-27T17:09:04.344Z,39.79
2022-07-27T17:15:07.757Z,38.94
2022-07-27T17:21:12.761Z,37.92
2022-07-27T17:27:15.090Z,32.97
2022-07-27T17:33:17.373Z,33.02
2022-07-27T17:39:19.467Z,36.18
2022-07-27T17:45:21.615Z,32.63
2022-07-27T17:51:25.302Z,28.82
2022-07-27T17:57:28.224Z,27.39
2022-07-27T18:03:33.710Z,28.16
2022-07-27T18:09:35.829Z,29.80
2022-07-27T18:15:47.042Z,32.94
2022-07-27T18:21:49.268Z,31.90
2022-07-27T18:27:51.663Z,30.94
2022-07-27T18:33:55.123Z,31.22
2022-07-27T18:39:57.252Z,32.67
2022-07-27T18:45:59.542Z,36.41
2022-07-27T18:52:01.708Z,40.82
2022-07-27T18:58:04.984Z,44.12
2022-07-27T19:04:07.461Z,45.72
2022-07-27T19:10:10.882Z,48.53
2022-07-27T19:16:13.302Z,50.44
2022-07-27T19:22:15.797Z,53.12
2022-07-27T19:28:20.486Z,54.91
2022-07-27T19:34:22.995Z,56.35
2022-07-27T19:40:45.115Z,57.56
2022-07-27T19:46:47.829Z,59.10
2022-07-27T19:52:49.906Z,60.27
2022-07-27T19:58:51.921Z,61.61
2022-07-27T20:04:54.216Z,62.90
2022-07-27T20:10:56.475Z,63.25
2022-07-27T20:16:58.866Z,63.60
2022-07-27T20:23:00.924Z,64.67
2022-07-27T20:29:03.000Z,65.63
2022-07-27T20:35:05.817Z,66.50
2022-07-27T20:41:07.773Z,67.17
2022-07-27T20:47:10.148Z,66.47
2022-07-27T20:53:12.222Z,66.56
2022-07-27T20:59:16.907Z,67.14
2022-07-27T21:05:21.565Z,67.40
2022-07-27T21:11:23.768Z,68.20
2022-07-27T21:17:25.831Z,68.52
2022-07-27T21:23:46.681Z,68.78
2022-07-27T21:29:49.026Z,69.81
2022-07-27T21:35:51.154Z,70.41
2022-07-27T21:41:55.196Z,71.12
2022-07-27T21:48:00.570Z,71.90
2022-07-27T21:54:02.679Z,72.26
2022-07-27T22:00:06.923Z,72.54
2022-07-27T22:06:09.130Z,72.94
2022-07-27T22:12:11.540Z,72.93
2022-07-27T22:18:13.562Z,73.04
2022-07-27T22:24:16.095Z,72.81
2022-07-27T22:30:18.535Z,73.22
2022-07-27T22:36:20.673Z,73.31
2022-07-27T22:42:22.685Z,73.88
2022-07-27T22:48:24.687Z,74.13
2022-07-27T22:54:26.651Z,73.94
2022-07-27T23:00:29.579Z,74.62
2022-07-27T23:06:31.601Z,75.36
2022-07-27T23:12:33.624Z,75.79
2022-07-27T23:18:35.595Z,75.77
2022-07-27T23:24:37.621Z,75.27
2022-07-27T23:30:43.709Z,75.26
2022-07-27T23:36:45.711Z,75.31
2022-07-27T23:42:47.980Z,75.33
2022-07-27T23:48:49.993Z,75.83
2022-07-27T23:54:52.017Z,76.26
